Offenbeek, Netherlands
Current Conditions -  °F | °C
As of 2:20 PM on Wednesday 22 Oct 2014 (Local Time) from EDLN Reporting Station
Broken Clouds Broken Clouds  
Wind Chill: 52°   Ceiling: 5200
Heat Index: 52°   Visibility: 6mi
Dew Point: 45°   Wind: 14mph
Humidity: 76%   Direction: 290°WNW
Pressure: 30.06"   Gusts: NA
Location:  51.28°N, 6.1°E
Report Text: EDLN 221220Z 29012KT 240V310 9999 FEW020 BKN052 11/07 Q1018 RMK ATIS N
Loading
Personal Weather Stations






























Interactive Weather Map
Tropical Storm Tracking
New forecast layout! Learn more

10-Day Weather Forecast

Advertisements
Track Severe Weather on mobile